Prestige Ace — H3NG — position and weather

sailwx.info

Track history (hours):
 
Tides and Currents Weather Stations Pressure Air Temp Water Temp Dewpoint Dewpoint Depression Visibility Wind Speed Wind Dir Waves Ship Positions

Prestige Ace

Last reported at 2017-Dec-10 21:23 UTC. Time now 2017-Dec-12 14:19 UTC.
Position N 41°19' E 002°10'.

Length 200 m; draft 7.9 m.

Type: Cargo ship. MMSI: 355745000.

Date/timePositionNaut miles runAvg speedWind from/ knotsBaromVisibWave heightAir tempDewpointWater temp
2017-Dec-10 21:23N 41°19' E 002°10'20 4.5
2017-Dec-10 17:00N 41°09' E 002°33'6 4.9
2017-Dec-10 15:42N 41°06' E 002°41'29 5.5
2017-Dec-10 10:26N 40°51' E 003°14'28010.2
2017-Dec-09 07:00N 38°36' E 008°33'915.1
2017-Dec-09 06:26N 38°32' E 008°42'26815.2
2017-Dec-08 12:47N 36°13' E 013°31'415.5
2017-Dec-08 12:29N 36°11' E 013°36'915.5
2017-Dec-08 11:55N 36°06' E 013°45'715.6
2017-Dec-08 11:30N 35°60' E 013°48'815.7
2017-Dec-08 11:00N 35°53' E 013°52'815.7
2017-Dec-08 10:30N 35°45' E 013°55'815.8
2017-Dec-08 09:59N 35°37' E 013°58'815.9
2017-Dec-08 09:29N 35°30' E 014°01'  
2017-Dec-04 00:08N 38°15' E 025°45'318.7
2017-Dec-03 23:59N 38°12' E 025°45'2018.5
2017-Dec-03 22:54N 37°52' E 025°47'718.3
2017-Dec-03 22:30N 37°45' E 025°48'918.5
2017-Dec-03 22:00N 37°36' E 025°49'918.4
2017-Dec-03 21:31N 37°27' E 025°50'917.8
2017-Dec-03 21:01N 37°21' E 025°59'918.0
2017-Dec-03 20:31N 37°17' E 026°09'918.0
2017-Dec-03 20:01N 37°12' E 026°18'917.9
2017-Dec-03 19:30N 37°07' E 026°28'917.9
2017-Dec-03 19:01N 37°03' E 026°38'917.5
2017-Dec-03 18:30N 36°54' E 026°38'918.2
2017-Dec-03 18:01N 36°45' E 026°37'917.9
2017-Dec-03 17:31N 36°37' E 026°43'918.2
2017-Dec-03 17:00N 36°30' E 026°50'918.4
2017-Dec-03 16:30N 36°23' E 026°57'918.4
2017-Dec-03 16:00N 36°16' E 027°04'1018.3
2017-Dec-03 15:27N 36°08' E 027°13'1518.1
2017-Dec-03 14:38N 35°56' E 027°24'818.0
2017-Dec-03 14:12N 35°51' E 027°30'718.1
2017-Dec-03 13:50N 35°45' E 027°36'718.3
2017-Dec-03 13:28N 35°40' E 027°41'818.3
2017-Dec-03 13:00N 35°34' E 027°48'1017.7
2017-Dec-03 12:28N 35°26' E 027°55'917.9
2017-Dec-03 11:59N 35°20' E 028°02'13717.9
2017-Dec-03 04:20N 33°38' E 029°53'1117.9
2017-Dec-03 03:42N 33°30' E 030°02'918.1
2017-Dec-03 03:12N 33°23' E 030°10'917.9
2017-Dec-03 02:41N 33°16' E 030°17'10118.0
2017-Dec-02 21:04N 32°01' E 031°37'118.0
2017-Dec-02 21:01N 31°60' E 031°38'918.0
2017-Dec-02 20:31N 31°53' E 031°45'1218.4
2017-Dec-02 19:53N 31°46' E 031°56'2717.9
2017-Dec-02 18:21N 31°29' E 032°21'514.6
2017-Dec-02 18:01N 31°25' E 032°24'714.6
2017-Dec-02 17:30N 31°18' E 032°22'610.4
2017-Dec-02 16:55N 31°12' E 032°20'3 7.6
2017-Dec-02 16:30N 31°09' E 032°19'  
Track history (hours):
 
Tides and Currents Weather Stations Pressure Air Temp Water Temp Dewpoint Dewpoint Depression Visibility Wind Speed Wind Dir Waves Ship Positions

Prestige Ace

Last reported at 2017-Dec-10 21:23 UTC. Time now 2017-Dec-12 14:19 UTC.
Position N 41°19' E 002°10'.

Length 200 m; draft 7.9 m.

Type: Cargo ship. MMSI: 355745000.

Date/timePositionNaut miles runAvg speedWind from/ knotsBaromVisibWave heightAir tempDewpointWater temp
2017-Dec-10 21:23N 41°19' E 002°10'20 4.5
2017-Dec-10 17:00N 41°09' E 002°33'6 4.9
2017-Dec-10 15:42N 41°06' E 002°41'29 5.5
2017-Dec-10 10:26N 40°51' E 003°14'28010.2
2017-Dec-09 07:00N 38°36' E 008°33'915.1
2017-Dec-09 06:26N 38°32' E 008°42'26815.2
2017-Dec-08 12:47N 36°13' E 013°31'415.5
2017-Dec-08 12:29N 36°11' E 013°36'915.5
2017-Dec-08 11:55N 36°06' E 013°45'715.6
2017-Dec-08 11:30N 35°60' E 013°48'815.7
2017-Dec-08 11:00N 35°53' E 013°52'815.7
2017-Dec-08 10:30N 35°45' E 013°55'815.8
2017-Dec-08 09:59N 35°37' E 013°58'815.9
2017-Dec-08 09:29N 35°30' E 014°01'  
2017-Dec-04 00:08N 38°15' E 025°45'318.7
2017-Dec-03 23:59N 38°12' E 025°45'2018.5
2017-Dec-03 22:54N 37°52' E 025°47'718.3
2017-Dec-03 22:30N 37°45' E 025°48'918.5
2017-Dec-03 22:00N 37°36' E 025°49'918.4
2017-Dec-03 21:31N 37°27' E 025°50'917.8
2017-Dec-03 21:01N 37°21' E 025°59'918.0
2017-Dec-03 20:31N 37°17' E 026°09'918.0
2017-Dec-03 20:01N 37°12' E 026°18'917.9
2017-Dec-03 19:30N 37°07' E 026°28'917.9
2017-Dec-03 19:01N 37°03' E 026°38'917.5
2017-Dec-03 18:30N 36°54' E 026°38'918.2
2017-Dec-03 18:01N 36°45' E 026°37'917.9
2017-Dec-03 17:31N 36°37' E 026°43'918.2
2017-Dec-03 17:00N 36°30' E 026°50'918.4
2017-Dec-03 16:30N 36°23' E 026°57'918.4
2017-Dec-03 16:00N 36°16' E 027°04'1018.3
2017-Dec-03 15:27N 36°08' E 027°13'1518.1
2017-Dec-03 14:38N 35°56' E 027°24'818.0
2017-Dec-03 14:12N 35°51' E 027°30'718.1
2017-Dec-03 13:50N 35°45' E 027°36'718.3
2017-Dec-03 13:28N 35°40' E 027°41'818.3
2017-Dec-03 13:00N 35°34' E 027°48'1017.7
2017-Dec-03 12:28N 35°26' E 027°55'917.9
2017-Dec-03 11:59N 35°20' E 028°02'13717.9
2017-Dec-03 04:20N 33°38' E 029°53'1117.9
2017-Dec-03 03:42N 33°30' E 030°02'918.1
2017-Dec-03 03:12N 33°23' E 030°10'917.9
2017-Dec-03 02:41N 33°16' E 030°17'10118.0
2017-Dec-02 21:04N 32°01' E 031°37'118.0
2017-Dec-02 21:01N 31°60' E 031°38'918.0
2017-Dec-02 20:31N 31°53' E 031°45'1218.4
2017-Dec-02 19:53N 31°46' E 031°56'2717.9
2017-Dec-02 18:21N 31°29' E 032°21'514.6
2017-Dec-02 18:01N 31°25' E 032°24'714.6
2017-Dec-02 17:30N 31°18' E 032°22'610.4
2017-Dec-02 16:55N 31°12' E 032°20'3 7.6
2017-Dec-02 16:30N 31°09' E 032°19'  

Dump ship's entire track history